Time;durP1;ratioP1;P1;durP2;ratioP2;P2;SDS_P1;SDS_P2;PMS_P1;PMS_P2;Temp;Humidity;BMP_temperature;BMP_pressure;BME280_temperature;BME280_humidity;BME280_pressure;Samples;Min_cycle;Max_cycle;Signal;HPM_P1;HPM_P2
2022/08/06 00:00:59;;;;;;;9.88;6.72;;;;;;;18.54;100.00;96600.59;5031125;28;20045;-78
2022/08/06 00:03:26;;;;;;;8.90;7.00;;;;;;;18.48;100.00;96598.13;5030109;28;20056;-78
2022/08/06 00:05:52;;;;;;;7.53;6.22;;;;;;;18.43;100.00;96600.38;5030970;28;20047;-79
2022/08/06 00:08:19;;;;;;;11.18;6.43;;;;;;;18.39;100.00;96613.28;5029953;28;20066;-77
2022/08/06 00:10:46;;;;;;;9.73;6.78;;;;;;;18.35;100.00;96615.97;5030896;28;20049;-79
2022/08/06 00:13:13;;;;;;;8.82;6.80;;;;;;;18.42;100.00;96626.34;5030196;28;20080;-78
2022/08/06 00:15:40;;;;;;;9.05;6.88;;;;;;;18.48;100.00;96624.91;5030714;28;20057;-78
2022/08/06 00:18:07;;;;;;;10.27;7.13;;;;;;;18.56;100.00;96632.16;5029902;28;20045;-78
2022/08/06 00:20:34;;;;;;;7.28;6.20;;;;;;;18.49;100.00;96632.00;5030403;28;20049;-78
2022/08/06 00:23:01;;;;;;;9.75;6.78;;;;;;;18.43;100.00;96634.25;5027932;28;20041;-77
2022/08/06 00:25:27;;;;;;;7.95;6.15;;;;;;;18.51;100.00;96640.72;5018530;28;20050;-77
2022/08/06 00:27:54;;;;;;;7.45;5.38;;;;;;;18.25;100.00;96641.34;5011061;28;20133;-79
2022/08/06 00:30:22;;;;;;;6.13;5.53;;;;;;;18.22;100.00;96650.34;5010402;28;20052;-77
2022/08/06 00:32:48;;;;;;;8.65;5.65;;;;;;;18.25;100.00;96652.38;5010668;28;20053;-77
2022/08/06 00:35:15;;;;;;;7.00;4.88;;;;;;;18.31;100.00;96652.88;5010338;28;20042;-76
2022/08/06 00:37:41;;;;;;;7.63;4.95;;;;;;;18.21;100.00;96655.03;5010731;28;20057;-77
2022/08/06 00:40:09;;;;;;;8.30;5.13;;;;;;;18.33;100.00;96662.41;5009746;28;20417;-77
2022/08/06 00:42:36;;;;;;;8.68;4.50;;;;;;;18.12;100.00;96661.94;5011025;28;20074;-78
2022/08/06 00:45:03;;;;;;;6.22;4.70;;;;;;;18.12;100.00;96661.94;5010154;28;20046;-78
2022/08/06 00:47:30;;;;;;;6.07;3.83;;;;;;;18.18;100.00;96666.00;5010501;28;20470;-77
2022/08/06 00:49:57;;;;;;;9.48;4.47;;;;;;;18.14;100.00;96667.88;5010114;28;20053;-79
2022/08/06 00:52:24;;;;;;;10.70;4.95;;;;;;;18.10;100.00;96670.53;5010319;28;20046;-77
2022/08/06 00:54:51;;;;;;;5.80;4.57;;;;;;;18.17;100.00;96672.69;5010258;28;20436;-77
2022/08/06 00:57:17;;;;;;;8.63;4.75;;;;;;;18.11;100.00;96666.63;5009730;28;20050;-77
2022/08/06 00:59:44;;;;;;;7.43;4.50;;;;;;;18.17;100.00;96675.44;5010303;28;20680;-78
2022/08/06 01:02:10;;;;;;;7.53;5.28;;;;;;;18.16;100.00;96674.59;5009763;28;20068;-78
2022/08/06 01:04:38;;;;;;;7.78;5.15;;;;;;;18.21;100.00;96670.78;5010318;28;20050;-78
2022/08/06 01:07:05;;;;;;;10.40;5.43;;;;;;;18.20;100.00;96664.47;5009054;28;20045;-78
2022/08/06 01:09:32;;;;;;;10.82;5.13;;;;;;;18.21;100.00;96665.25;5023511;28;20057;-78
2022/08/06 01:11:58;;;;;;;9.15;5.30;;;;;;;18.07;100.00;96663.00;5029712;28;20052;-78
2022/08/06 01:14:26;;;;;;;11.10;5.43;;;;;;;18.04;100.00;96655.44;5029471;28;20041;-78
2022/08/06 01:16:58;;;;;;;9.18;5.35;;;;;;;18.03;100.00;96658.56;5029831;28;20072;-78
2022/08/06 01:19:52;;;;;;;8.10;5.50;;;;;;;17.94;100.00;96656.00;5029185;28;20048;-78
2022/08/06 01:22:45;;;;;;;8.88;5.07;;;;;;;17.97;100.00;96656.09;5033819;28;20164;-79
2022/08/06 01:25:38;;;;;;;9.90;5.75;;;;;;;18.02;100.00;96656.97;5020280;28;20046;-79
2022/08/06 01:28:12;;;;;;;8.07;5.28;;;;;;;17.91;100.00;96640.19;5033565;28;20056;-78
2022/08/06 01:30:45;;;;;;;10.00;6.13;;;;;;;17.71;100.00;96637.34;5033874;28;20136;-78
2022/08/06 01:33:15;;;;;;;9.18;5.53;;;;;;;17.71;100.00;96642.06;5033483;28;20053;-78
2022/08/06 01:35:45;;;;;;;9.63;5.95;;;;;;;17.69;100.00;96639.63;5033732;28;20129;-78
2022/08/06 01:38:17;;;;;;;11.90;6.40;;;;;;;17.50;100.00;96636.03;5033262;28;20052;-79
2022/08/06 01:40:45;;;;;;;8.02;5.95;;;;;;;17.61;100.00;96648.09;5034384;28;20049;-79
2022/08/06 01:43:15;;;;;;;8.80;6.55;;;;;;;17.67;100.00;96646.69;5034337;28;20057;-77
2022/08/06 01:45:45;;;;;;;12.52;6.93;;;;;;;17.67;100.00;96652.19;5034436;28;20521;-77
2022/08/06 01:48:16;;;;;;;8.63;5.53;;;;;;;17.59;100.00;96634.69;5033448;28;20049;-77
2022/08/06 01:50:46;;;;;;;11.52;7.03;;;;;;;17.53;100.00;96638.06;5034010;28;20049;-77
2022/08/06 01:53:17;;;;;;;9.23;7.43;;;;;;;17.46;100.00;96638.69;5017591;28;20390;-77
2022/08/06 01:55:47;;;;;;;10.38;7.20;;;;;;;17.54;100.00;96626.72;5014258;28;20052;-77
2022/08/06 01:58:18;;;;;;;12.00;6.60;;;;;;;17.40;100.00;96629.91;5013406;28;20041;-77
2022/08/06 02:00:51;;;;;;;10.15;6.60;;;;;;;17.57;100.00;96636.19;5013762;28;20045;-77
2022/08/06 02:03:21;;;;;;;8.43;6.50;;;;;;;17.51;100.00;96634.88;5013129;28;20569;-78
2022/08/06 02:05:49;;;;;;;10.50;6.32;;;;;;;17.30;100.00;96632.38;5013494;28;20046;-77
2022/08/06 02:08:21;;;;;;;11.70;6.78;;;;;;;17.32;100.00;96636.38;5012552;28;20046;-76
2022/08/06 02:10:51;;;;;;;10.23;6.77;;;;;;;17.30;100.00;96633.19;5013125;28;20050;-78
2022/08/06 02:13:21;;;;;;;11.07;7.10;;;;;;;17.28;100.00;96635.50;5012734;28;20054;-77
2022/08/06 02:15:50;;;;;;;10.00;6.97;;;;;;;17.46;100.00;96633.19;5012906;28;20522;-77
2022/08/06 02:18:19;;;;;;;8.85;6.50;;;;;;;17.54;100.00;96639.66;5012465;28;20619;-77
2022/08/06 02:20:48;;;;;;;10.43;6.60;;;;;;;17.65;100.00;96632.47;5012824;28;20046;-77
2022/08/06 02:23:19;;;;;;;9.40;6.90;;;;;;;17.68;100.00;96637.25;5030351;28;20048;-77
2022/08/06 02:25:47;;;;;;;11.05;7.10;;;;;;;17.68;100.00;96634.50;5032691;28;20402;-77
2022/08/06 02:28:15;;;;;;;12.35;7.50;;;;;;;17.82;100.00;96632.13;5032452;28;20552;-77
2022/08/06 02:30:45;;;;;;;9.18;6.85;;;;;;;17.79;100.00;96632.81;5032627;28;20050;-77
2022/08/06 02:33:12;;;;;;;8.40;6.88;;;;;;;17.83;100.00;96636.47;5032121;28;20048;-77
2022/08/06 02:35:48;;;;;;;8.25;5.80;;;;;;;17.81;100.00;96641.53;5032710;28;20054;-77
2022/08/06 02:38:23;;;;;;;10.68;6.40;;;;;;;17.65;100.00;96647.03;5032241;28;20416;-78
2022/08/06 02:40:57;;;;;;;8.40;6.32;;;;;;;17.75;100.00;96645.72;5032994;28;20140;-78
2022/08/06 02:43:31;;;;;;;7.20;6.45;;;;;;;17.79;100.00;96632.81;5032287;28;20076;-78
2022/08/06 02:46:07;;;;;;;9.88;6.32;;;;;;;17.93;100.00;96633.16;5032928;28;20053;-77
2022/08/06 02:48:37;;;;;;;9.43;6.55;;;;;;;17.99;100.00;96636.44;5052293;28;20041;-77
2022/08/06 02:51:09;;;;;;;9.45;6.00;;;;;;;18.04;100.00;96640.88;5052362;28;20045;-78
2022/08/06 02:53:44;;;;;;;9.27;6.38;;;;;;;17.92;100.00;96634.31;5051574;28;20507;-78
2022/08/06 02:56:14;;;;;;;9.98;6.78;;;;;;;17.95;100.00;96633.59;5052021;28;20103;-78
2022/08/06 02:58:44;;;;;;;12.32;7.18;;;;;;;17.84;100.00;96629.00;5051952;28;20052;-78
2022/08/06 03:01:15;;;;;;;10.40;7.13;;;;;;;17.93;100.00;96638.66;5051618;28;20048;-78
2022/08/06 03:03:44;;;;;;;12.23;7.47;;;;;;;17.85;100.00;96636.91;5052073;28;20045;-78
2022/08/06 03:06:13;;;;;;;11.98;7.80;;;;;;;17.81;100.00;96638.00;5051674;28;20401;-78
2022/08/06 03:08:40;;;;;;;9.95;7.60;;;;;;;17.91;100.00;96632.72;5052956;28;20064;-79
2022/08/06 03:11:10;;;;;;;13.52;7.95;;;;;;;17.97;100.00;96634.03;5052212;28;20049;-78
2022/08/06 03:13:38;;;;;;;13.13;7.65;;;;;;;17.93;100.00;96638.66;5051760;28;20060;-79
2022/08/06 03:16:06;;;;;;;15.45;7.95;;;;;;;17.97;100.00;96639.56;5051428;28;20053;-79
2022/08/06 03:18:37;;;;;;;16.10;8.43;;;;;;;17.96;100.00;96635.22;5051410;28;20045;-80
2022/08/06 03:21:04;;;;;;;14.35;9.20;;;;;;;17.96;100.00;96639.91;5051266;28;20041;-79
2022/08/06 03:23:32;;;;;;;15.80;9.75;;;;;;;18.05;100.00;96643.25;5052092;28;20045;-78
2022/08/06 03:26:00;;;;;;;14.88;9.48;;;;;;;18.11;100.00;96644.56;5051381;28;20049;-79
2022/08/06 03:28:28;;;;;;;13.77;10.02;;;;;;;18.12;100.00;96645.41;5051172;28;20602;-80
2022/08/06 03:30:55;;;;;;;20.00;11.00;;;;;;;18.14;100.00;96648.56;5051443;28;20048;-80
2022/08/06 03:33:22;;;;;;;13.95;9.48;;;;;;;18.23;100.00;96651.94;5051064;28;20657;-78
2022/08/06 03:35:52;;;;;;;16.10;11.50;;;;;;;18.17;100.00;96651.41;5051183;28;20048;-79
2022/08/06 03:38:20;;;;;;;17.05;10.68;;;;;;;18.24;100.00;96648.00;5050570;28;20041;-80
2022/08/06 03:40:48;;;;;;;20.85;11.48;;;;;;;18.30;100.00;96652.09;5051471;28;20052;-80
2022/08/06 03:43:15;;;;;;;21.02;11.40;;;;;;;18.22;100.00;96650.34;5049892;28;20048;-79
2022/08/06 03:45:49;;;;;;;16.45;11.60;;;;;;;18.22;100.00;96650.34;5051065;28;20045;-80
2022/08/06 03:48:21;;;;;;;14.13;10.75;;;;;;;18.29;100.00;96656.00;5050828;28;20045;-79
2022/08/06 03:50:54;;;;;;;15.00;11.35;;;;;;;18.20;100.00;96653.44;5051144;28;20041;-79
2022/08/06 03:53:23;;;;;;;16.02;11.13;;;;;;;18.28;100.00;96654.41;5051355;28;20044;-80
2022/08/06 03:55:51;;;;;;;18.80;12.27;;;;;;;18.16;100.00;96657.28;5051014;28;20064;-79
2022/08/06 03:58:20;;;;;;;17.02;12.38;;;;;;;18.11;100.00;96665.81;5050850;28;20095;-78
2022/08/06 04:00:51;;;;;;;27.25;15.40;;;;;;;18.07;100.00;96659.44;5050638;28;20048;-79
2022/08/06 04:03:19;;;;;;;22.55;14.63;;;;;;;17.95;100.00;96663.91;5050628;28;20136;-79
2022/08/06 04:05:46;;;;;;;23.95;15.40;;;;;;;17.91;100.00;96668.53;5051266;28;20037;-80
2022/08/06 04:08:16;;;;;;;25.63;17.95;;;;;;;17.89;100.00;96676.34;5050439;28;20132;-80
2022/08/06 04:10:45;;;;;;;26.23;17.27;;;;;;;17.97;100.00;96677.34;5051088;28;20045;-79
2022/08/06 04:13:14;;;;;;;20.08;14.13;;;;;;;17.95;100.00;96677.66;5050753;28;20063;-79
2022/08/06 04:15:41;;;;;;;21.05;13.35;;;;;;;17.88;100.00;96674.75;5051135;28;20056;-79
2022/08/06 04:18:11;;;;;;;20.25;12.85;;;;;;;17.90;100.00;96675.19;5050411;28;20049;-79
2022/08/06 04:20:40;;;;;;;19.38;12.02;;;;;;;17.93;100.00;96693.78;5051595;28;20053;-79
2022/08/06 04:23:07;;;;;;;18.95;12.38;;;;;;;17.89;100.00;96692.09;5050404;28;20044;-79
2022/08/06 04:25:50;;;;;;;14.63;10.93;;;;;;;17.83;100.00;96705.34;5051661;28;20056;-79
2022/08/06 04:28:19;;;;;;;16.33;10.90;;;;;;;17.71;100.00;96708.16;5050458;28;20049;-79
2022/08/06 04:30:49;;;;;;;17.25;10.68;;;;;;;17.62;100.00;96704.78;5050877;28;20048;-79
2022/08/06 04:33:20;;;;;;;15.60;10.40;;;;;;;17.62;100.00;96707.53;5050364;28;20049;-79
2022/08/06 04:35:47;;;;;;;16.40;11.00;;;;;;;17.62;100.00;96715.78;5050567;28;20048;-80
2022/08/06 04:38:15;;;;;;;16.50;10.30;;;;;;;17.64;100.00;96716.22;5050132;28;20047;-79
2022/08/06 04:40:43;;;;;;;14.90;9.68;;;;;;;17.58;100.00;96725.91;5050497;28;20049;-79
2022/08/06 04:43:11;;;;;;;14.68;10.52;;;;;;;17.54;100.00;96736.84;5050232;28;20072;-79
2022/08/06 04:45:39;;;;;;;14.63;10.65;;;;;;;17.56;100.00;96728.22;5050906;28;20418;-79
2022/08/06 04:48:08;;;;;;;13.32;9.77;;;;;;;17.62;100.00;96746.06;5050144;28;20045;-79
2022/08/06 04:50:35;;;;;;;14.23;10.23;;;;;;;17.60;100.00;96740.13;5050372;28;20048;-79
2022/08/06 04:53:06;;;;;;;14.90;9.90;;;;;;;17.58;100.00;96745.97;5036830;28;20258;-77
2022/08/06 04:55:33;;;;;;;14.05;9.73;;;;;;;17.60;100.00;96743.69;5029408;28;20045;-78
2022/08/06 04:58:02;;;;;;;14.32;8.73;;;;;;;17.62;100.00;96743.31;5030236;28;20055;-79
2022/08/06 05:00:28;;;;;;;13.75;9.15;;;;;;;17.61;100.00;96744.50;5029580;28;20069;-79
2022/08/06 05:02:55;;;;;;;12.82;8.80;;;;;;;17.60;100.00;96748.41;5030086;28;20052;-78
2022/08/06 05:05:22;;;;;;;8.85;7.20;;;;;;;17.37;100.00;96737.97;5029641;28;20042;-79
2022/08/06 05:07:52;;;;;;;9.68;6.57;;;;;;;17.42;100.00;96750.66;5027493;28;20493;-79
2022/08/06 05:10:20;;;;;;;9.55;6.68;;;;;;;17.24;100.00;96754.91;5009371;28;20053;-79
2022/08/06 05:12:53;;;;;;;11.02;7.32;;;;;;;17.18;100.00;96757.91;5010437;28;20417;-78
2022/08/06 05:15:23;;;;;;;;;;;;;;;17.13;100.00;96763.66;5010143;28;20053;-79
2022/08/06 05:17:56;;;;;;;9.55;6.68;;;;;;;17.13;100.00;96766.41;5010249;28;19937;-78
2022/08/06 05:20:23;;;;;;;9.40;6.78;;;;;;;16.96;100.00;96777.69;5010077;28;20041;-79
2022/08/06 05:22:56;;;;;;;13.18;8.45;;;;;;;16.93;100.00;96775.66;5024530;28;20055;-79
2022/08/06 05:25:23;;;;;;;10.95;7.45;;;;;;;17.02;100.00;96781.00;5029497;28;20053;-78
2022/08/06 05:27:49;;;;;;;11.18;7.50;;;;;;;16.95;100.00;96787.91;5029637;28;20520;-79
2022/08/06 05:30:16;;;;;;;10.95;7.63;;;;;;;16.95;100.00;96776.91;5029086;28;20615;-79
2022/08/06 05:32:45;;;;;;;11.25;7.90;;;;;;;16.85;100.00;96785.63;5044912;28;20034;-85
2022/08/06 05:35:11;;;;;;;13.48;8.95;;;;;;;16.72;100.00;96784.06;5051088;28;20544;-84
2022/08/06 05:37:38;;;;;;;10.43;7.90;;;;;;;16.77;100.00;96792.09;5050095;28;20101;-84
2022/08/06 05:40:07;;;;;;;11.85;8.38;;;;;;;16.74;100.00;96798.28;5050622;28;20053;-83
2022/08/06 05:42:36;;;;;;;15.23;8.15;;;;;;;16.71;100.00;96804.47;5048531;28;20136;-82
2022/08/06 05:45:03;;;;;;;10.70;8.68;;;;;;;16.73;100.00;96813.16;5049735;28;20116;-76
2022/08/06 05:47:37;;;;;;;10.02;8.30;;;;;;;16.74;100.00;96813.97;5048815;28;20049;-81
2022/08/06 05:50:09;;;;;;;13.32;9.98;;;;;;;16.72;100.00;96806.06;5047848;28;20103;-81
2022/08/06 05:52:41;;;;;;;12.97;9.13;;;;;;;16.76;100.00;96804.25;5049474;28;20049;-83
2022/08/06 05:55:12;;;;;;;12.50;9.90;;;;;;;16.82;100.00;96810.31;5047006;28;20291;-81
2022/08/06 05:57:43;;;;;;;11.90;9.80;;;;;;;16.89;100.00;96816.81;5046914;28;20056;-82
2022/08/06 06:00:13;;;;;;;12.93;9.60;;;;;;;16.83;100.00;96818.19;5048247;28;20504;-83
2022/08/06 06:02:42;;;;;;;13.25;9.98;;;;;;;16.80;100.00;96824.38;5049586;28;20101;-84
2022/08/06 06:05:12;;;;;;;14.63;10.43;;;;;;;16.62;100.00;96823.00;5045271;28;20045;-82
2022/08/06 06:07:39;;;;;;;10.80;8.55;;;;;;;16.68;100.00;96832.63;5042241;28;20053;-80
2022/08/06 06:10:08;;;;;;;12.02;9.57;;;;;;;16.61;100.00;96826.91;5038301;28;20045;-79
2022/08/06 06:12:47;;;;;;;11.07;8.75;;;;;;;16.49;100.00;96838.69;5073603;28;20441;-83
2022/08/06 06:15:15;;;;;;;8.48;6.35;;;;;;;16.35;94.14;96841.81;5033957;28;20056;-79
2022/08/06 06:17:53;;;;;;;9.48;6.30;;;;;;;16.23;95.36;96844.53;5051934;28;20052;-80
2022/08/06 06:20:33;;;;;;;7.07;5.90;;;;;;;16.13;95.23;96851.31;5053609;28;20487;-81
2022/08/06 06:23:14;;;;;;;6.95;6.03;;;;;;;16.13;95.95;96850.47;5077253;28;20028;-84
2022/08/06 06:25:47;;;;;;;6.85;6.10;;;;;;;16.07;95.35;96851.84;5044272;28;20053;-81
2022/08/06 06:28:15;;;;;;;;;;;;;;;16.00;94.99;96846.13;5041315;28;20380;-81
2022/08/06 06:31:03;;;;;;;8.38;6.55;;;;;;;15.93;97.01;96851.38;5060322;28;19931;-80
2022/08/06 06:33:43;;;;;;;8.07;6.65;;;;;;;15.88;96.47;96850.47;5046006;28;20045;-81
2022/08/06 06:36:20;;;;;;;8.48;7.30;;;;;;;15.93;98.50;96854.13;5065966;28;20437;-85
2022/08/06 06:38:58;;;;;;;9.60;6.85;;;;;;;15.94;97.89;96858.47;5073569;28;20116;-83
2022/08/06 06:41:35;;;;;;;9.07;7.30;;;;;;;15.91;97.50;96860.75;5061368;28;20039;-82
2022/08/06 06:44:15;;;;;;;8.10;6.47;;;;;;;15.95;97.90;96871.06;5070218;28;20044;-84
2022/08/06 06:46:55;;;;;;;11.63;8.15;;;;;;;16.00;98.66;96873.59;5062293;28;20052;-84
2022/08/06 06:49:25;;;;;;;9.82;7.72;;;;;;;15.86;99.91;96884.88;5062363;28;20092;-84
2022/08/06 06:51:57;;;;;;;10.77;7.93;;;;;;;15.88;100.00;96877.13;5069949;28;20037;-83
2022/08/06 06:54:27;;;;;;;10.82;8.10;;;;;;;15.95;100.00;96877.34;5046880;28;20051;-83
2022/08/06 06:56:57;;;;;;;9.40;7.95;;;;;;;15.97;100.00;96888.00;5055152;28;20053;-85
2022/08/06 06:59:30;;;;;;;10.93;8.98;;;;;;;15.88;100.00;96888.91;5052349;28;20036;-79
2022/08/06 07:04:35;;;;;;;13.65;9.75;;;;;;;15.68;100.00;96895.25;5164017;23;20044;-83
2022/08/06 07:07:05;;;;;;;10.45;9.32;;;;;;;15.78;100.00;96894.81;5051482;28;20052;-84
2022/08/06 07:09:35;;;;;;;12.38;9.60;;;;;;;15.70;100.00;96890.22;5049519;28;20065;-86
2022/08/06 07:12:04;;;;;;;14.00;9.93;;;;;;;15.50;100.00;96904.72;5054262;28;20504;-79
2022/08/06 07:16:59;;;;;;;15.05;11.18;;;;;;;15.30;100.00;96907.19;5172037;22;20470;-78
2022/08/06 07:19:27;;;;;;;16.75;12.68;;;;;;;15.27;100.00;96902.34;5067715;28;20055;-76
2022/08/06 07:21:55;;;;;;;15.40;11.95;;;;;;;15.37;100.00;96904.69;5051077;28;20091;-75
2022/08/06 07:24:25;;;;;;;16.42;12.18;;;;;;;15.38;100.00;96905.50;5068604;28;20049;-77
2022/08/06 07:26:54;;;;;;;13.68;11.65;;;;;;;15.31;100.00;96908.78;5068861;28;20060;-78
2022/08/06 07:29:21;;;;;;;15.88;12.38;;;;;;;15.33;100.00;96911.97;5067934;28;20684;-77
2022/08/06 07:31:49;;;;;;;17.77;13.30;;;;;;;15.44;100.00;96911.56;5068569;28;20669;-78
2022/08/06 07:34:17;;;;;;;18.45;13.85;;;;;;;15.40;100.00;96911.47;5066383;28;20044;-77
2022/08/06 07:36:50;;;;;;;17.58;14.00;;;;;;;15.45;100.00;96910.44;5080371;28;20058;-78
2022/08/06 07:39:18;;;;;;;;;;;;;;;15.45;100.00;96918.66;5084682;28;20468;-77
2022/08/06 07:41:48;;;;;;;18.95;13.93;;;;;;;15.45;100.00;96918.66;5084335;28;20375;-76
2022/08/06 07:44:15;;;;;;;20.00;14.88;;;;;;;15.51;100.00;96911.84;5082331;28;20040;-76
2022/08/06 07:46:48;;;;;;;20.55;15.15;;;;;;;15.54;100.00;96922.13;5086826;28;20340;-76
2022/08/06 07:49:17;;;;;;;27.88;14.45;;;;;;;15.47;100.00;96921.88;5087320;28;20072;-79
2022/08/06 07:51:46;;;;;;;17.85;14.57;;;;;;;15.48;100.00;96920.75;5088206;28;20044;-77
2022/08/06 07:54:15;;;;;;;19.30;14.75;;;;;;;15.44;100.00;96928.03;5087808;28;20529;-76
2022/08/06 07:56:44;;;;;;;19.90;15.77;;;;;;;15.43;100.00;96931.94;5085793;28;20048;-75
2022/08/06 07:59:12;;;;;;;20.13;15.23;;;;;;;15.39;100.00;96929.84;5087296;28;20044;-77
2022/08/06 08:01:39;;;;;;;19.27;14.98;;;;;;;15.43;100.00;96931.94;5088265;28;20052;-77
2022/08/06 08:06:52;;;;;;;21.02;15.68;;;;;;;15.56;100.00;96939.09;5088171;28;20067;-76
2022/08/06 08:09:21;;;;;;;23.00;17.60;;;;;;;15.63;100.00;96939.38;5087428;28;20500;-77
2022/08/06 08:11:49;;;;;;;20.92;16.67;;;;;;;15.69;100.00;96940.78;5087904;28;20101;-77
2022/08/06 08:14:21;;;;;;;20.60;16.63;;;;;;;15.63;100.00;96940.19;5087692;28;20051;-76
2022/08/06 08:16:49;;;;;;;21.80;15.33;;;;;;;15.61;100.00;96939.69;5086203;28;20039;-76
2022/08/06 08:19:26;;;;;;;23.50;15.52;;;;;;;15.65;100.00;96939.84;5086675;28;20048;-76
2022/08/06 08:21:56;;;;;;;21.65;17.13;;;;;;;15.75;100.00;96936.69;5083178;28;20052;-76
2022/08/06 08:24:23;;;;;;;21.00;15.85;;;;;;;15.73;100.00;96943.66;5090017;28;20469;-78
2022/08/06 08:26:50;;;;;;;20.45;15.77;;;;;;;15.57;100.00;96949.72;5090393;28;20055;-77
2022/08/06 08:29:18;;;;;;;20.55;14.55;;;;;;;15.59;100.00;96952.94;5089930;28;20048;-78
2022/08/06 08:31:44;;;;;;;21.05;15.02;;;;;;;15.63;100.00;96953.91;5090700;28;20044;-76
2022/08/06 08:34:12;;;;;;;21.70;16.50;;;;;;;15.64;100.00;96950.00;5090139;28;20048;-76
2022/08/06 08:36:39;;;;;;;19.80;15.70;;;;;;;15.69;100.00;96948.22;5090652;28;20101;-77
2022/08/06 08:39:06;;;;;;;21.25;16.70;;;;;;;15.68;100.00;96950.16;5090365;28;20050;-77
2022/08/06 08:41:37;;;;;;;22.67;16.20;;;;;;;15.74;100.00;96954.28;5090749;28;20047;-77
2022/08/06 08:44:06;;;;;;;20.35;15.90;;;;;;;15.79;100.00;96951.34;5090271;28;20040;-76
2022/08/06 08:46:37;;;;;;;22.98;16.48;;;;;;;15.78;100.00;96955.25;5090545;28;20048;-76
2022/08/06 08:49:07;;;;;;;18.45;14.60;;;;;;;15.81;100.00;96954.53;5089996;28;20040;-76
2022/08/06 08:51:37;;;;;;;20.23;16.27;;;;;;;15.88;100.00;96965.00;5089388;28;20105;-76
2022/08/06 08:54:07;;;;;;;25.30;17.95;;;;;;;15.83;100.00;96962.47;5089960;28;20052;-74
2022/08/06 08:56:33;;;;;;;23.73;17.63;;;;;;;15.88;100.00;96963.06;5090314;28;20048;-75
2022/08/06 08:59:01;;;;;;;26.38;20.50;;;;;;;15.97;100.00;96962.16;5090330;28;20040;-74
2022/08/06 09:01:28;;;;;;;29.30;18.40;;;;;;;16.07;100.00;96967.22;5089897;28;20047;-75
2022/08/06 09:03:56;;;;;;;30.92;20.35;;;;;;;16.08;100.00;96969.66;5090330;28;20048;-75
2022/08/06 09:06:23;;;;;;;21.02;16.33;;;;;;;16.11;100.00;96966.22;5089593;28;20048;-74
2022/08/06 09:08:51;;;;;;;22.63;16.80;;;;;;;16.17;100.00;96970.34;5090183;28;20051;-75
2022/08/06 09:11:17;;;;;;;22.50;16.35;;;;;;;16.25;100.00;96974.16;5089694;28;20472;-74
2022/08/06 09:13:44;;;;;;;17.92;15.13;;;;;;;16.28;100.00;96972.66;5090199;28;20048;-76
2022/08/06 09:16:10;;;;;;;19.30;13.82;;;;;;;16.25;100.00;96968.69;5089456;28;20532;-75
2022/08/06 09:18:37;;;;;;;17.17;13.30;;;;;;;16.20;100.00;96971.63;5090139;28;20510;-75
2022/08/06 09:21:05;;;;;;;17.23;13.88;;;;;;;16.22;100.00;96977.59;5089269;28;20415;-75
2022/08/06 09:23:32;;;;;;;18.80;14.93;;;;;;;16.27;100.00;96977.38;5089854;28;20059;-76
2022/08/06 09:26:05;;;;;;;16.77;14.40;;;;;;;16.41;100.00;96983.38;5090031;28;20051;-76
2022/08/06 09:28:35;;;;;;;17.20;13.88;;;;;;;16.50;100.00;96982.47;5089798;28;20040;-75
2022/08/06 09:31:04;;;;;;;17.30;14.23;;;;;;;16.54;100.00;96986.94;5089914;28;20051;-75
2022/08/06 09:33:31;;;;;;;14.85;12.85;;;;;;;16.54;100.00;96986.13;5089639;28;20123;-75
2022/08/06 09:35:59;;;;;;;16.88;13.70;;;;;;;16.55;100.00;96982.22;5089982;28;20067;-75
2022/08/06 09:38:28;;;;;;;19.77;16.08;;;;;;;16.57;100.00;96985.47;5089308;28;20040;-75
2022/08/06 09:41:09;;;;;;;19.17;14.27;;;;;;;16.74;100.00;96984.47;5090012;28;20044;-75
2022/08/06 09:43:37;;;;;;;15.10;12.95;;;;;;;16.75;100.00;96989.63;5093913;28;20119;-75
2022/08/06 09:46:04;;;;;;;21.80;14.95;;;;;;;16.74;100.00;96990.78;5093662;28;20453;-74
2022/08/06 09:48:30;;;;;;;14.13;12.55;;;;;;;16.89;100.00;96992.84;5093647;28;20075;-76
2022/08/06 09:50:57;;;;;;;16.15;12.13;;;;;;;16.93;100.00;96988.28;5093703;28;20036;-75
2022/08/06 09:53:24;;;;;;;14.40;11.40;;;;;;;16.97;100.00;96987.59;5093013;28;20056;-76
2022/08/06 09:55:54;;;;;;;14.20;12.10;;;;;;;17.07;100.00;96992.59;5093649;28;20051;-75
2022/08/06 09:58:30;;;;;;;12.57;11.27;;;;;;;17.10;100.00;96997.44;5093243;28;20059;-75
2022/08/06 10:00:56;;;;;;;13.90;11.35;;;;;;;17.07;100.00;96998.94;5093633;28;20044;-75
2022/08/06 10:03:23;;;;;;;11.73;9.77;;;;;;;17.09;100.00;96995.84;5093154;28;20491;-76
2022/08/06 10:06:03;;;;;;;11.85;9.85;;;;;;;17.15;100.00;96999.97;5093520;28;20046;-76
2022/08/06 10:08:30;;;;;;;11.02;9.50;;;;;;;17.20;100.00;96999.72;5093314;28;20413;-76
2022/08/06 10:11:02;;;;;;;11.80;10.50;;;;;;;17.25;100.00;96994.00;5093836;28;20051;-75
2022/08/06 10:13:30;;;;;;;14.27;11.30;;;;;;;17.26;100.00;97001.09;5093502;28;20656;-76
2022/08/06 10:15:59;;;;;;;12.38;10.38;;;;;;;17.27;100.00;97008.19;5093106;28;20281;-75
2022/08/06 10:18:37;;;;;;;11.98;10.18;;;;;;;17.25;100.00;96994.00;5093205;28;20399;-75
2022/08/06 10:21:06;;;;;;;12.73;10.32;;;;;;;17.29;100.00;97003.16;5092547;28;20545;-75
2022/08/06 10:23:35;;;;;;;13.95;10.35;;;;;;;17.41;100.00;96996.84;5093106;28;20048;-75
2022/08/06 10:26:05;;;;;;;12.18;9.98;;;;;;;17.56;100.00;96993.38;5093139;28;20056;-77
2022/08/06 10:28:34;;;;;;;12.30;10.15;;;;;;;17.70;100.00;96993.00;5093094;28;20040;-77
2022/08/06 10:31:03;;;;;;;12.70;9.65;;;;;;;17.74;98.24;96988.41;5093103;28;20048;-77
2022/08/06 10:33:33;;;;;;;10.35;8.43;;;;;;;17.69;93.41;96997.69;5092702;28;20491;-77
2022/08/06 10:36:05;;;;;;;10.38;8.05;;;;;;;17.65;94.06;96998.75;5092826;28;20063;-76
2022/08/06 10:38:35;;;;;;;11.20;9.32;;;;;;;17.57;96.94;97005.19;5092705;28;20040;-76
2022/08/06 10:41:06;;;;;;;10.82;9.38;;;;;;;17.57;95.68;96994.16;5093010;28;20048;-77
2022/08/06 10:43:36;;;;;;;13.20;8.82;;;;;;;17.57;93.57;97002.44;5092850;28;20044;-77
2022/08/06 10:46:04;;;;;;;9.52;8.27;;;;;;;17.59;92.89;97000.94;5092181;28;20052;-76
2022/08/06 10:48:32;;;;;;;10.55;8.10;;;;;;;17.55;93.68;97002.78;5092605;28;20048;-76
2022/08/06 10:50:58;;;;;;;11.02;9.13;;;;;;;17.57;95.51;97005.97;5092616;28;20526;-76
2022/08/06 10:53:26;;;;;;;8.98;7.85;;;;;;;17.65;93.27;97002.31;5090510;28;20044;-77
2022/08/06 10:55:53;;;;;;;9.25;7.57;;;;;;;17.60;92.70;97004.50;5092592;28;20048;-77
2022/08/06 10:58:22;;;;;;;9.50;7.72;;;;;;;17.61;91.88;97006.09;5092102;28;20051;-77
2022/08/06 11:00:48;;;;;;;10.27;8.68;;;;;;;17.53;93.02;97009.78;5092606;28;20047;-76
2022/08/06 11:03:20;;;;;;;15.25;12.18;;;;;;;17.48;94.75;97002.56;5091830;28;20044;-77
2022/08/06 11:05:56;;;;;;;16.92;12.52;;;;;;;17.53;95.22;96998.75;5091818;28;20048;-77
2022/08/06 11:08:43;;;;;;;15.15;12.18;;;;;;;17.63;95.85;96998.28;5091653;28;20044;-77
2022/08/06 11:11:34;;;;;;;15.30;11.63;;;;;;;17.69;94.95;96991.38;5091519;28;20044;-76
2022/08/06 11:14:06;;;;;;;12.73;10.93;;;;;;;17.77;94.04;96992.44;5082158;28;20534;-76
2022/08/06 11:16:33;;;;;;;14.80;10.80;;;;;;;17.80;91.95;96987.03;5090674;28;20051;-76
2022/08/06 11:19:01;;;;;;;11.98;10.63;;;;;;;17.84;91.15;96987.91;5092049;28;20067;-77
2022/08/06 11:21:42;;;;;;;12.35;9.95;;;;;;;17.88;91.91;96985.28;5091378;28;20083;-75
2022/08/06 11:24:09;;;;;;;13.75;10.50;;;;;;;17.95;92.76;96983.50;5091248;28;20123;-76
2022/08/06 11:26:37;;;;;;;13.82;12.40;;;;;;;17.93;93.63;96991.34;5091892;28;20055;-77
2022/08/06 11:29:07;;;;;;;14.80;11.80;;;;;;;17.93;93.98;96990.53;5091273;28;20055;-76
2022/08/06 11:31:39;;;;;;;12.65;11.32;;;;;;;17.96;94.31;96987.09;5091904;28;20086;-75
2022/08/06 11:34:09;;;;;;;12.07;10.75;;;;;;;18.03;92.63;96984.53;5091103;28;20466;-76
2022/08/06 11:36:50;;;;;;;15.43;12.57;;;;;;;18.05;93.82;96986.94;5091700;28;20058;-74